Eminent Ace — 7JUL — position and weather

sailwx.info

Track history (hours):
 
Tides and Currents Weather Stations Pressure Air Temp Water Temp Dewpoint Dewpoint Depression Visibility Wind Speed Wind Dir Waves Ship Positions

Eminent Ace

Last reported at 2017-Nov-12 11:52 UTC. Time now 2017-Nov-21 01:08 UTC.
Position N 49°14' W 127°01'.
Warning: this ship's position is 8 days out of date.

Length 199 m; draft 7.7 m.

Type: Cargo ship. MMSI: 431205000.

Date/timePositionNaut miles runAvg speedWind from/ knotsBaromVisibWave heightAir tempDewpointWater temp
2017-Nov-12 11:52N 49°14' W 127°01'719.3
2017-Nov-12 11:30N 49°10' W 126°52'1019.6
2017-Nov-12 10:59N 49°04' W 126°39'919.7
2017-Nov-12 10:30N 48°59' W 126°28'1019.7
2017-Nov-12 10:01N 48°53' W 126°15'1019.6
2017-Nov-12 09:30N 48°47' W 126°03'1019.7
2017-Nov-12 09:00N 48°42' W 125°51'1019.1
2017-Nov-12 08:31N 48°36' W 125°39'918.8
2017-Nov-12 08:01N 48°33' W 125°26'918.5
2017-Nov-12 07:31N 48°31' W 125°12'918.5
2017-Nov-12 07:00N 48°31' W 124°58'918.4
2017-Nov-12 06:30N 48°31' W 124°44'918.8
2017-Nov-12 06:00N 48°27' W 124°31'918.7
2017-Nov-12 05:30N 48°24' W 124°18'1018.8
2017-Nov-12 05:00N 48°20' W 124°05'918.6
2017-Nov-12 04:30N 48°17' W 123°52'1019.0
2017-Nov-12 04:00N 48°16' W 123°38'816.2
2017-Nov-12 03:30N 48°19' W 123°27'5 9.7
2017-Nov-12 03:01N 48°23' W 123°23'510.3
2017-Nov-12 02:30N 48°24' W 123°15'816.7
2017-Nov-12 02:00N 48°32' W 123°13'1019.1
2017-Nov-12 01:30N 48°42' W 123°15'1019.7
2017-Nov-12 01:00N 48°47' W 123°02'917.0
2017-Nov-12 00:30N 48°54' W 123°09'1019.2
2017-Nov-12 00:00N 49°01' W 123°19'611.2
2017-Nov-11 23:30N 49°07' W 123°18'510.6
2017-Nov-11 23:00N 49°07' W 123°09'611.1
2017-Nov-11 22:30N 49°09' W 123°02'4 8.2
2017-Nov-11 22:00N 49°10' W 122°56'1 1.2
2017-Nov-11 21:30N 49°11' W 122°55'0 0.0
2017-Nov-11 20:48N 49°11' W 122°55'0 0.0
2017-Nov-11 20:24N 49°11' W 122°55'0 0.0
2017-Nov-11 20:00N 49°11' W 122°55'0 0.0
2017-Nov-11 19:30N 49°11' W 122°55'0 0.0
2017-Nov-11 19:00N 49°11' W 122°55'0 0.0
2017-Nov-11 18:12N 49°11' W 122°55'0 0.0
2017-Nov-11 17:54N 49°11' W 122°55'0 0.0
2017-Nov-11 17:24N 49°11' W 122°55'0 0.0
2017-Nov-11 17:00N 49°11' W 122°55'0 0.0
2017-Nov-11 16:18N 49°11' W 122°55'0 0.0
2017-Nov-11 15:51N 49°11' W 122°55'0 0.0
2017-Nov-11 15:30N 49°11' W 122°55'0 0.0
2017-Nov-11 15:00N 49°11' W 122°55'0 0.0
2017-Nov-11 14:30N 49°11' W 122°55'0 0.0
2017-Nov-11 13:39N 49°11' W 122°55'0 0.0
2017-Nov-11 13:30N 49°11' W 122°55'0 0.0
2017-Nov-11 12:42N 49°11' W 122°55'0 0.0
2017-Nov-11 12:30N 49°11' W 122°55'0 0.0
2017-Nov-11 12:00N 49°11' W 122°55'1 1.5
2017-Nov-11 11:30N 49°10' W 122°56'4 7.2
2017-Nov-11 11:00N 49°09' W 123°01'510.3
2017-Nov-11 10:30N 49°06' W 123°08'510.5
2017-Nov-11 10:01N 49°07' W 123°15'4 8.4
2017-Nov-11 09:30N 49°04' W 123°20'510.9
2017-Nov-11 09:01N 49°00' W 123°14'816.7
2017-Nov-11 08:30N 48°54' W 123°05'815.4
2017-Nov-11 08:00N 48°47' W 123°00'917.6
2017-Nov-11 07:30N 48°43' W 123°12'714.7
2017-Nov-11 07:01N 48°35' W 123°13'917.5
2017-Nov-11 06:31N 48°27' W 123°09'816.0
2017-Nov-11 06:00N 48°22' W 123°19'5 9.1
2017-Nov-11 05:30N 48°19' W 123°25'2 4.9
2017-Nov-11 05:01N 48°17' W 123°26'4 6.9
2017-Nov-11 04:29N 48°14' W 123°29'4 8.5
2017-Nov-11 04:00N 48°13' W 123°35'4 8.5
2017-Nov-11 03:30N 48°13' W 123°41'4 8.8
2017-Nov-11 03:00N 48°13' W 123°48'4 8.7
2017-Nov-11 02:30N 48°13' W 123°54'510.4
2017-Nov-11 01:59N 48°16' W 124°02'510.6
2017-Nov-11 01:30N 48°18' W 124°09'510.6
2017-Nov-11 01:00N 48°20' W 124°16'5 9.9
2017-Nov-11 00:30N 48°22' W 124°23'510.4
2017-Nov-11 00:01N 48°24' W 124°30'510.1
2017-Nov-10 23:30N 48°26' W 124°37'510.5
2017-Nov-10 23:01N 48°28' W 124°44'510.7
2017-Nov-10 22:30N 48°28' W 124°52'510.3
2017-Nov-10 22:00N 48°28' W 124°60'510.5
2017-Nov-10 21:30N 48°23' W 125°04'611.3
2017-Nov-10 21:00N 48°18' W 125°06'911.1
2017-Nov-10 20:11N 48°09' W 125°10'511.2
2017-Nov-10 19:41N 48°04' W 125°13'5010.9
2017-Nov-10 15:05N 47°15' W 124°57'114.3
2017-Nov-10 15:00N 47°14' W 124°57'714.3
2017-Nov-10 14:30N 47°07' W 124°53'714.0
2017-Nov-10 14:00N 47°00' W 124°50'714.1
2017-Nov-10 13:31N 46°54' W 124°46'714.0
2017-Nov-10 13:00N 46°47' W 124°43'713.8
2017-Nov-10 12:30N 46°41' W 124°39'713.8
2017-Nov-10 12:00N 46°34' W 124°36'714.0
2017-Nov-10 11:30N 46°28' W 124°32'713.4
2017-Nov-10 11:01N 46°22' W 124°27'713.7
2017-Nov-10 10:30N 46°17' W 124°20'7 8.5
2017-Nov-10 09:42N 46°12' W 124°13'313.6
2017-Nov-10 09:31N 46°13' W 124°09'612.9
2017-Nov-10 09:01N 46°15' W 124°00'713.4
2017-Nov-10 08:31N 46°12' W 123°51'5 9.5
2017-Nov-10 08:00N 46°13' W 123°45'815.5
2017-Nov-10 07:30N 46°15' W 123°34'611.3
2017-Nov-10 07:00N 46°15' W 123°26'612.6
2017-Nov-10 06:30N 46°09' W 123°23'714.9
2017-Nov-10 06:01N 46°11' W 123°12'714.7
2017-Nov-10 05:30N 46°09' W 123°02'510.8
2017-Nov-10 05:00N 46°06' W 122°56'510.5
2017-Nov-10 04:30N 46°01' W 122°52'612.3
2017-Nov-10 04:00N 45°55' W 122°48'713.5
2017-Nov-10 03:29N 45°48' W 122°47'714.1
2017-Nov-10 03:00N 45°42' W 122°46'4 8.0
2017-Nov-10 02:28N 45°37' W 122°48'2 3.6
2017-Nov-10 02:00N 45°36' W 122°47'0 0.0
2017-Nov-10 01:30N 45°36' W 122°47'0 0.0
2017-Nov-10 01:00N 45°36' W 122°47'0 0.0
2017-Nov-10 00:30N 45°36' W 122°47'0 0.0
2017-Nov-10 00:00N 45°36' W 122°47'0 0.0
2017-Nov-09 23:30N 45°36' W 122°47'0 0.0
2017-Nov-09 23:00N 45°36' W 122°47'0 0.0
2017-Nov-09 22:30N 45°36' W 122°47'0 0.0
2017-Nov-09 21:57N 45°36' W 122°47'0 0.0
2017-Nov-09 21:30N 45°36' W 122°47'0 0.0
2017-Nov-09 21:00N 45°36' W 122°47'0 0.0
2017-Nov-09 20:30N 45°36' W 122°47'0 0.0
2017-Nov-09 20:00N 45°36' W 122°47'0 0.0
2017-Nov-09 19:30N 45°36' W 122°47'0 0.0
2017-Nov-09 19:00N 45°36' W 122°47'0 0.0
2017-Nov-09 18:30N 45°36' W 122°47'0 0.0
2017-Nov-09 18:00N 45°36' W 122°47'0 0.0
2017-Nov-09 17:27N 45°36' W 122°47'0 0.0
2017-Nov-09 17:00N 45°36' W 122°47'0 0.0
2017-Nov-09 16:30N 45°36' W 122°47'0 0.2
2017-Nov-09 16:00N 45°36' W 122°47'3 6.3
2017-Nov-09 15:30N 45°39' W 122°46'511.0
2017-Nov-09 15:01N 45°44' W 122°46'713.4
2017-Nov-09 14:30N 45°51' W 122°47'713.3
2017-Nov-09 14:00N 45°58' W 122°49'611.3
2017-Nov-09 13:30N 46°03' W 122°53'510.1
2017-Nov-09 13:00N 46°06' W 122°58'812.7
2017-Nov-09 12:23N 46°11' W 123°07'513.7
2017-Nov-09 12:00N 46°10' W 123°14'812.1
2017-Nov-09 11:21N 46°11' W 123°26'412.2
2017-Nov-09 11:01N 46°15' W 123°26'511.0
2017-Nov-09 10:31N 46°15' W 123°34'611.3
2017-Nov-09 10:00N 46°14' W 123°42'510.9
2017-Nov-09 09:30N 46°12' W 123°49'510.1
2017-Nov-09 09:00N 46°12' W 123°57'713.1
2017-Nov-09 08:31N 46°15' W 124°05'713.1
2017-Nov-09 08:01N 46°12' W 124°14'4 7.0
2017-Nov-09 07:31N 46°11' W 124°19'4 7.6
2017-Nov-09 07:01N 46°13' W 124°23'713.3
2017-Nov-09 06:30N 46°14' W 124°33'4 5.8
2017-Nov-09 05:45N 46°15' W 124°39'310.8
2017-Nov-09 05:30N 46°16' W 124°43'714.5
2017-Nov-09 05:00N 46°19' W 124°52'714.7
2017-Nov-09 04:30N 46°23' W 125°02'714.2
2017-Nov-09 04:00N 46°26' W 125°11'713.9
2017-Nov-09 03:30N 46°29' W 125°20'713.5
2017-Nov-09 03:00N 46°32' W 125°29'  
Track history (hours):
 
Tides and Currents Weather Stations Pressure Air Temp Water Temp Dewpoint Dewpoint Depression Visibility Wind Speed Wind Dir Waves Ship Positions

Eminent Ace

Last reported at 2017-Nov-12 11:52 UTC. Time now 2017-Nov-21 01:08 UTC.
Position N 49°14' W 127°01'.
Warning: this ship's position is 8 days out of date.

Length 199 m; draft 7.7 m.

Type: Cargo ship. MMSI: 431205000.

Date/timePositionNaut miles runAvg speedWind from/ knotsBaromVisibWave heightAir tempDewpointWater temp
2017-Nov-12 11:52N 49°14' W 127°01'719.3
2017-Nov-12 11:30N 49°10' W 126°52'1019.6
2017-Nov-12 10:59N 49°04' W 126°39'919.7
2017-Nov-12 10:30N 48°59' W 126°28'1019.7
2017-Nov-12 10:01N 48°53' W 126°15'1019.6
2017-Nov-12 09:30N 48°47' W 126°03'1019.7
2017-Nov-12 09:00N 48°42' W 125°51'1019.1
2017-Nov-12 08:31N 48°36' W 125°39'918.8
2017-Nov-12 08:01N 48°33' W 125°26'918.5
2017-Nov-12 07:31N 48°31' W 125°12'918.5
2017-Nov-12 07:00N 48°31' W 124°58'918.4
2017-Nov-12 06:30N 48°31' W 124°44'918.8
2017-Nov-12 06:00N 48°27' W 124°31'918.7
2017-Nov-12 05:30N 48°24' W 124°18'1018.8
2017-Nov-12 05:00N 48°20' W 124°05'918.6
2017-Nov-12 04:30N 48°17' W 123°52'1019.0
2017-Nov-12 04:00N 48°16' W 123°38'816.2
2017-Nov-12 03:30N 48°19' W 123°27'5 9.7
2017-Nov-12 03:01N 48°23' W 123°23'510.3
2017-Nov-12 02:30N 48°24' W 123°15'816.7
2017-Nov-12 02:00N 48°32' W 123°13'1019.1
2017-Nov-12 01:30N 48°42' W 123°15'1019.7
2017-Nov-12 01:00N 48°47' W 123°02'917.0
2017-Nov-12 00:30N 48°54' W 123°09'1019.2
2017-Nov-12 00:00N 49°01' W 123°19'611.2
2017-Nov-11 23:30N 49°07' W 123°18'510.6
2017-Nov-11 23:00N 49°07' W 123°09'611.1
2017-Nov-11 22:30N 49°09' W 123°02'4 8.2
2017-Nov-11 22:00N 49°10' W 122°56'1 1.2
2017-Nov-11 21:30N 49°11' W 122°55'0 0.0
2017-Nov-11 20:48N 49°11' W 122°55'0 0.0
2017-Nov-11 20:24N 49°11' W 122°55'0 0.0
2017-Nov-11 20:00N 49°11' W 122°55'0 0.0
2017-Nov-11 19:30N 49°11' W 122°55'0 0.0
2017-Nov-11 19:00N 49°11' W 122°55'0 0.0
2017-Nov-11 18:12N 49°11' W 122°55'0 0.0
2017-Nov-11 17:54N 49°11' W 122°55'0 0.0
2017-Nov-11 17:24N 49°11' W 122°55'0 0.0
2017-Nov-11 17:00N 49°11' W 122°55'0 0.0
2017-Nov-11 16:18N 49°11' W 122°55'0 0.0
2017-Nov-11 15:51N 49°11' W 122°55'0 0.0
2017-Nov-11 15:30N 49°11' W 122°55'0 0.0
2017-Nov-11 15:00N 49°11' W 122°55'0 0.0
2017-Nov-11 14:30N 49°11' W 122°55'0 0.0
2017-Nov-11 13:39N 49°11' W 122°55'0 0.0
2017-Nov-11 13:30N 49°11' W 122°55'0 0.0
2017-Nov-11 12:42N 49°11' W 122°55'0 0.0
2017-Nov-11 12:30N 49°11' W 122°55'0 0.0
2017-Nov-11 12:00N 49°11' W 122°55'1 1.5
2017-Nov-11 11:30N 49°10' W 122°56'4 7.2
2017-Nov-11 11:00N 49°09' W 123°01'510.3
2017-Nov-11 10:30N 49°06' W 123°08'510.5
2017-Nov-11 10:01N 49°07' W 123°15'4 8.4
2017-Nov-11 09:30N 49°04' W 123°20'510.9
2017-Nov-11 09:01N 49°00' W 123°14'816.7
2017-Nov-11 08:30N 48°54' W 123°05'815.4
2017-Nov-11 08:00N 48°47' W 123°00'917.6
2017-Nov-11 07:30N 48°43' W 123°12'714.7
2017-Nov-11 07:01N 48°35' W 123°13'917.5
2017-Nov-11 06:31N 48°27' W 123°09'816.0
2017-Nov-11 06:00N 48°22' W 123°19'5 9.1
2017-Nov-11 05:30N 48°19' W 123°25'2 4.9
2017-Nov-11 05:01N 48°17' W 123°26'4 6.9
2017-Nov-11 04:29N 48°14' W 123°29'4 8.5
2017-Nov-11 04:00N 48°13' W 123°35'4 8.5
2017-Nov-11 03:30N 48°13' W 123°41'4 8.8
2017-Nov-11 03:00N 48°13' W 123°48'4 8.7
2017-Nov-11 02:30N 48°13' W 123°54'510.4
2017-Nov-11 01:59N 48°16' W 124°02'510.6
2017-Nov-11 01:30N 48°18' W 124°09'510.6
2017-Nov-11 01:00N 48°20' W 124°16'5 9.9
2017-Nov-11 00:30N 48°22' W 124°23'510.4
2017-Nov-11 00:01N 48°24' W 124°30'510.1
2017-Nov-10 23:30N 48°26' W 124°37'510.5
2017-Nov-10 23:01N 48°28' W 124°44'510.7
2017-Nov-10 22:30N 48°28' W 124°52'510.3
2017-Nov-10 22:00N 48°28' W 124°60'510.5
2017-Nov-10 21:30N 48°23' W 125°04'611.3
2017-Nov-10 21:00N 48°18' W 125°06'911.1
2017-Nov-10 20:11N 48°09' W 125°10'511.2
2017-Nov-10 19:41N 48°04' W 125°13'5010.9
2017-Nov-10 15:05N 47°15' W 124°57'114.3
2017-Nov-10 15:00N 47°14' W 124°57'714.3
2017-Nov-10 14:30N 47°07' W 124°53'714.0
2017-Nov-10 14:00N 47°00' W 124°50'714.1
2017-Nov-10 13:31N 46°54' W 124°46'714.0
2017-Nov-10 13:00N 46°47' W 124°43'713.8
2017-Nov-10 12:30N 46°41' W 124°39'713.8
2017-Nov-10 12:00N 46°34' W 124°36'714.0
2017-Nov-10 11:30N 46°28' W 124°32'713.4
2017-Nov-10 11:01N 46°22' W 124°27'713.7
2017-Nov-10 10:30N 46°17' W 124°20'7 8.5
2017-Nov-10 09:42N 46°12' W 124°13'313.6
2017-Nov-10 09:31N 46°13' W 124°09'612.9
2017-Nov-10 09:01N 46°15' W 124°00'713.4
2017-Nov-10 08:31N 46°12' W 123°51'5 9.5
2017-Nov-10 08:00N 46°13' W 123°45'815.5
2017-Nov-10 07:30N 46°15' W 123°34'611.3
2017-Nov-10 07:00N 46°15' W 123°26'612.6
2017-Nov-10 06:30N 46°09' W 123°23'714.9
2017-Nov-10 06:01N 46°11' W 123°12'714.7
2017-Nov-10 05:30N 46°09' W 123°02'510.8
2017-Nov-10 05:00N 46°06' W 122°56'510.5
2017-Nov-10 04:30N 46°01' W 122°52'612.3
2017-Nov-10 04:00N 45°55' W 122°48'713.5
2017-Nov-10 03:29N 45°48' W 122°47'714.1
2017-Nov-10 03:00N 45°42' W 122°46'4 8.0
2017-Nov-10 02:28N 45°37' W 122°48'2 3.6
2017-Nov-10 02:00N 45°36' W 122°47'0 0.0
2017-Nov-10 01:30N 45°36' W 122°47'0 0.0
2017-Nov-10 01:00N 45°36' W 122°47'0 0.0
2017-Nov-10 00:30N 45°36' W 122°47'0 0.0
2017-Nov-10 00:00N 45°36' W 122°47'0 0.0
2017-Nov-09 23:30N 45°36' W 122°47'0 0.0
2017-Nov-09 23:00N 45°36' W 122°47'0 0.0
2017-Nov-09 22:30N 45°36' W 122°47'0 0.0
2017-Nov-09 21:57N 45°36' W 122°47'0 0.0
2017-Nov-09 21:30N 45°36' W 122°47'0 0.0
2017-Nov-09 21:00N 45°36' W 122°47'0 0.0
2017-Nov-09 20:30N 45°36' W 122°47'0 0.0
2017-Nov-09 20:00N 45°36' W 122°47'0 0.0
2017-Nov-09 19:30N 45°36' W 122°47'0 0.0
2017-Nov-09 19:00N 45°36' W 122°47'0 0.0
2017-Nov-09 18:30N 45°36' W 122°47'0 0.0
2017-Nov-09 18:00N 45°36' W 122°47'0 0.0
2017-Nov-09 17:27N 45°36' W 122°47'0 0.0
2017-Nov-09 17:00N 45°36' W 122°47'0 0.0
2017-Nov-09 16:30N 45°36' W 122°47'0 0.2
2017-Nov-09 16:00N 45°36' W 122°47'3 6.3
2017-Nov-09 15:30N 45°39' W 122°46'511.0
2017-Nov-09 15:01N 45°44' W 122°46'713.4
2017-Nov-09 14:30N 45°51' W 122°47'713.3
2017-Nov-09 14:00N 45°58' W 122°49'611.3
2017-Nov-09 13:30N 46°03' W 122°53'510.1
2017-Nov-09 13:00N 46°06' W 122°58'812.7
2017-Nov-09 12:23N 46°11' W 123°07'513.7
2017-Nov-09 12:00N 46°10' W 123°14'812.1
2017-Nov-09 11:21N 46°11' W 123°26'412.2
2017-Nov-09 11:01N 46°15' W 123°26'511.0
2017-Nov-09 10:31N 46°15' W 123°34'611.3
2017-Nov-09 10:00N 46°14' W 123°42'510.9
2017-Nov-09 09:30N 46°12' W 123°49'510.1
2017-Nov-09 09:00N 46°12' W 123°57'713.1
2017-Nov-09 08:31N 46°15' W 124°05'713.1
2017-Nov-09 08:01N 46°12' W 124°14'4 7.0
2017-Nov-09 07:31N 46°11' W 124°19'4 7.6
2017-Nov-09 07:01N 46°13' W 124°23'713.3
2017-Nov-09 06:30N 46°14' W 124°33'4 5.8
2017-Nov-09 05:45N 46°15' W 124°39'310.8
2017-Nov-09 05:30N 46°16' W 124°43'714.5
2017-Nov-09 05:00N 46°19' W 124°52'714.7
2017-Nov-09 04:30N 46°23' W 125°02'714.2
2017-Nov-09 04:00N 46°26' W 125°11'713.9
2017-Nov-09 03:30N 46°29' W 125°20'713.5
2017-Nov-09 03:00N 46°32' W 125°29'  

Dump ship's entire track history